sensor_id;sensor_type;location;lat;lon;timestamp;pressure;altitude;pressure_sealevel;temperature;humidity
38038;BME280;23843;51.320;12.340;2023-04-25T00:01:57;99541.91;;;8.75;98.10
38038;BME280;23843;51.320;12.340;2023-04-25T00:04:23;99545.31;;;8.77;97.75
38038;BME280;23843;51.320;12.340;2023-04-25T00:06:48;99533.97;;;8.75;98.68
38038;BME280;23843;51.320;12.340;2023-04-25T00:09:14;99537.38;;;8.77;96.72
38038;BME280;23843;51.320;12.340;2023-04-25T00:11:40;99530.69;;;8.71;97.22
38038;BME280;23843;51.320;12.340;2023-04-25T00:14:05;99526.44;;;8.69;96.06
38038;BME280;23843;51.320;12.340;2023-04-25T00:16:31;99538.38;;;8.60;98.57
38038;BME280;23843;51.320;12.340;2023-04-25T00:18:57;99534.41;;;8.53;96.40
38038;BME280;23843;51.320;12.340;2023-04-25T00:21:23;99531.13;;;8.49;94.25
38038;BME280;23843;51.320;12.340;2023-04-25T00:23:48;99529.69;;;8.44;98.38
38038;BME280;23843;51.320;12.340;2023-04-25T00:26:14;99534.31;;;8.39;97.29
38038;BME280;23843;51.320;12.340;2023-04-25T00:28:39;99533.84;;;8.32;98.80
38038;BME280;23843;51.320;12.340;2023-04-25T00:31:05;99532.50;;;8.25;98.75
38038;BME280;23843;51.320;12.340;2023-04-25T00:33:31;99541.53;;;8.21;100.00
38038;BME280;23843;51.320;12.340;2023-04-25T00:35:57;99539.41;;;8.11;100.00
38038;BME280;23843;51.320;12.340;2023-04-25T00:38:23;99535.34;;;8.06;100.00
38038;BME280;23843;51.320;12.340;2023-04-25T00:40:48;99545.31;;;8.01;100.00
38038;BME280;23843;51.320;12.340;2023-04-25T00:43:14;99541.25;;;7.95;100.00
38038;BME280;23843;51.320;12.340;2023-04-25T00:45:40;99545.91;;;7.90;100.00
38038;BME280;23843;51.320;12.340;2023-04-25T00:48:05;99546.06;;;7.87;100.00
38038;BME280;23843;51.320;12.340;2023-04-25T00:50:39;99541.16;;;7.81;100.00
38038;BME280;23843;51.320;12.340;2023-04-25T00:53:09;99540.56;;;7.76;100.00
38038;BME280;23843;51.320;12.340;2023-04-25T00:55:35;99545.72;;;7.77;100.00
38038;BME280;23843;51.320;12.340;2023-04-25T00:58:00;99537.81;;;7.77;100.00
38038;BME280;23843;51.320;12.340;2023-04-25T01:00:26;99546.75;;;7.75;100.00
38038;BME280;23843;51.320;12.340;2023-04-25T01:02:51;99539.78;;;7.74;100.00
38038;BME280;23843;51.320;12.340;2023-04-25T01:05:17;99543.34;;;7.72;100.00
38038;BME280;23843;51.320;12.340;2023-04-25T01:07:42;99545.97;;;7.72;100.00
38038;BME280;23843;51.320;12.340;2023-04-25T01:10:09;99542.69;;;7.69;100.00
38038;BME280;23843;51.320;12.340;2023-04-25T01:12:35;99547.94;;;7.69;100.00
38038;BME280;23843;51.320;12.340;2023-04-25T01:15:00;99540.03;;;7.69;100.00
38038;BME280;23843;51.320;12.340;2023-04-25T01:17:26;99538.69;;;7.62;100.00
38038;BME280;23843;51.320;12.340;2023-04-25T01:19:52;99538.75;;;7.60;100.00
38038;BME280;23843;51.320;12.340;2023-04-25T01:22:19;99537.00;;;7.61;100.00
38038;BME280;23843;51.320;12.340;2023-04-25T01:24:45;99529.75;;;7.64;99.83
38038;BME280;23843;51.320;12.340;2023-04-25T01:27:10;99541.38;;;7.60;98.51
38038;BME280;23843;51.320;12.340;2023-04-25T01:29:36;99538.84;;;7.59;100.00
38038;BME280;23843;51.320;12.340;2023-04-25T01:32:02;99540.78;;;7.55;100.00
38038;BME280;23843;51.320;12.340;2023-04-25T01:34:28;99535.78;;;7.50;100.00
38038;BME280;23843;51.320;12.340;2023-04-25T01:36:53;99534.50;;;7.42;100.00
38038;BME280;23843;51.320;12.340;2023-04-25T01:39:20;99533.72;;;7.40;99.29
38038;BME280;23843;51.320;12.340;2023-04-25T01:41:46;99535.59;;;7.38;100.00
38038;BME280;23843;51.320;12.340;2023-04-25T01:44:12;99540.94;;;7.36;100.00
38038;BME280;23843;51.320;12.340;2023-04-25T01:46:38;99546.56;;;7.30;100.00
38038;BME280;23843;51.320;12.340;2023-04-25T01:49:04;99539.84;;;7.24;100.00
38038;BME280;23843;51.320;12.340;2023-04-25T01:51:30;99540.22;;;7.17;100.00
38038;BME280;23843;51.320;12.340;2023-04-25T01:53:56;99553.72;;;7.11;100.00
38038;BME280;23843;51.320;12.340;2023-04-25T01:56:23;99543.59;;;7.03;100.00
38038;BME280;23843;51.320;12.340;2023-04-25T01:58:49;99546.53;;;6.97;100.00
38038;BME280;23843;51.320;12.340;2023-04-25T02:01:17;99534.31;;;6.96;100.00
38038;BME280;23843;51.320;12.340;2023-04-25T02:03:42;99538.81;;;6.94;100.00
38038;BME280;23843;51.320;12.340;2023-04-25T02:06:08;99528.44;;;6.91;100.00
38038;BME280;23843;51.320;12.340;2023-04-25T02:08:33;99532.94;;;6.89;100.00
38038;BME280;23843;51.320;12.340;2023-04-25T02:10:59;99533.84;;;6.88;100.00
38038;BME280;23843;51.320;12.340;2023-04-25T02:13:26;99537.25;;;6.90;100.00
38038;BME280;23843;51.320;12.340;2023-04-25T02:15:51;99540.91;;;6.87;100.00
38038;BME280;23843;51.320;12.340;2023-04-25T02:18:17;99541.06;;;6.84;100.00
38038;BME280;23843;51.320;12.340;2023-04-25T02:20:42;99536.03;;;6.79;100.00
38038;BME280;23843;51.320;12.340;2023-04-25T02:23:08;99533.72;;;6.73;100.00
38038;BME280;23843;51.320;12.340;2023-04-25T02:25:33;99537.44;;;6.69;100.00
38038;BME280;23843;51.320;12.340;2023-04-25T02:27:59;99539.06;;;6.72;100.00
38038;BME280;23843;51.320;12.340;2023-04-25T02:30:26;99531.25;;;6.70;100.00
38038;BME280;23843;51.320;12.340;2023-04-25T02:32:51;99531.34;;;6.69;100.00
38038;BME280;23843;51.320;12.340;2023-04-25T02:35:17;99531.41;;;6.67;100.00
38038;BME280;23843;51.320;12.340;2023-04-25T02:37:43;99530.31;;;6.71;100.00
38038;BME280;23843;51.320;12.340;2023-04-25T02:40:09;99526.75;;;6.72;100.00
38038;BME280;23843;51.320;12.340;2023-04-25T02:42:34;99529.31;;;6.74;100.00
38038;BME280;23843;51.320;12.340;2023-04-25T02:45:00;99529.47;;;6.71;100.00
38038;BME280;23843;51.320;12.340;2023-04-25T02:47:27;99527.94;;;6.67;100.00
38038;BME280;23843;51.320;12.340;2023-04-25T02:49:52;99526.47;;;6.61;100.00
38038;BME280;23843;51.320;12.340;2023-04-25T02:52:18;99522.88;;;6.62;100.00
38038;BME280;23843;51.320;12.340;2023-04-25T02:54:43;99522.66;;;6.67;100.00
38038;BME280;23843;51.320;12.340;2023-04-25T02:57:09;99513.16;;;6.64;100.00
38038;BME280;23843;51.320;12.340;2023-04-25T02:59:34;99518.47;;;6.62;100.00
38038;BME280;23843;51.320;12.340;2023-04-25T03:02:00;99524.69;;;6.61;100.00
38038;BME280;23843;51.320;12.340;2023-04-25T03:04:27;99521.03;;;6.64;100.00
38038;BME280;23843;51.320;12.340;2023-04-25T03:06:53;99522.72;;;6.65;100.00
38038;BME280;23843;51.320;12.340;2023-04-25T03:09:18;99525.69;;;6.59;100.00
38038;BME280;23843;51.320;12.340;2023-04-25T03:11:44;99524.28;;;6.52;100.00
38038;BME280;23843;51.320;12.340;2023-04-25T03:14:10;99527.09;;;6.49;100.00
38038;BME280;23843;51.320;12.340;2023-04-25T03:16:35;99530.69;;;6.46;100.00
38038;BME280;23843;51.320;12.340;2023-04-25T03:19:01;99528.84;;;6.48;100.00
38038;BME280;23843;51.320;12.340;2023-04-25T03:21:28;99526.38;;;6.45;100.00
38038;BME280;23843;51.320;12.340;2023-04-25T03:23:54;99523.13;;;6.40;100.00
38038;BME280;23843;51.320;12.340;2023-04-25T03:26:19;99519.78;;;6.36;100.00
38038;BME280;23843;51.320;12.340;2023-04-25T03:28:45;99526.16;;;6.32;100.00
38038;BME280;23843;51.320;12.340;2023-04-25T03:31:10;99526.16;;;6.32;100.00
38038;BME280;23843;51.320;12.340;2023-04-25T03:33:35;99525.03;;;6.36;100.00
38038;BME280;23843;51.320;12.340;2023-04-25T03:36:01;99522.56;;;6.33;100.00
38038;BME280;23843;51.320;12.340;2023-04-25T03:38:28;99520.09;;;6.30;100.00
38038;BME280;23843;51.320;12.340;2023-04-25T03:40:53;99521.13;;;6.28;100.00
38038;BME280;23843;51.320;12.340;2023-04-25T03:43:19;99522.91;;;6.27;100.00
38038;BME280;23843;51.320;12.340;2023-04-25T03:45:44;99524.75;;;6.25;100.00
38038;BME280;23843;51.320;12.340;2023-04-25T03:48:10;99528.16;;;6.27;100.00
38038;BME280;23843;51.320;12.340;2023-04-25T03:50:35;99518.66;;;6.25;100.00
38038;BME280;23843;51.320;12.340;2023-04-25T03:53:01;99525.75;;;6.22;100.00
38038;BME280;23843;51.320;12.340;2023-04-25T03:55:27;99517.09;;;6.20;100.00
38038;BME280;23843;51.320;12.340;2023-04-25T03:57:53;99513.59;;;6.20;100.00
38038;BME280;23843;51.320;12.340;2023-04-25T04:00:18;99517.94;;;6.21;100.00
38038;BME280;23843;51.320;12.340;2023-04-25T04:02:44;99519.56;;;6.24;100.00
38038;BME280;23843;51.320;12.340;2023-04-25T04:05:09;99517.63;;;6.27;100.00
38038;BME280;23843;51.320;12.340;2023-04-25T04:07:35;99531.56;;;6.29;100.00
38038;BME280;23843;51.320;12.340;2023-04-25T04:10:00;99525.22;;;6.33;100.00
38038;BME280;23843;51.320;12.340;2023-04-25T04:12:27;99528.63;;;6.35;100.00
38038;BME280;23843;51.320;12.340;2023-04-25T04:14:52;99525.03;;;6.36;100.00
38038;BME280;23843;51.320;12.340;2023-04-25T04:17:18;99532.03;;;6.37;100.00
38038;BME280;23843;51.320;12.340;2023-04-25T04:19:43;99530.63;;;6.48;100.00
38038;BME280;23843;51.320;12.340;2023-04-25T04:22:09;99525.91;;;6.54;100.00
38038;BME280;23843;51.320;12.340;2023-04-25T04:24:34;99528.44;;;6.56;100.00
38038;BME280;23843;51.320;12.340;2023-04-25T04:27:00;99535.28;;;6.60;100.00
38038;BME280;23843;51.320;12.340;2023-04-25T04:29:27;99532.00;;;6.72;100.00
38038;BME280;23843;51.320;12.340;2023-04-25T04:31:52;99538.13;;;6.90;100.00
38038;BME280;23843;51.320;12.340;2023-04-25T04:34:18;99540.03;;;7.04;100.00
38038;BME280;23843;51.320;12.340;2023-04-25T04:36:43;99544.50;;;7.35;100.00
38038;BME280;23843;51.320;12.340;2023-04-25T04:39:09;99551.75;;;8.11;100.00
38038;BME280;23843;51.320;12.340;2023-04-25T04:41:34;99550.53;;;9.36;98.72
38038;BME280;23843;51.320;12.340;2023-04-25T04:44:00;99556.56;;;9.81;93.78
38038;BME280;23843;51.320;12.340;2023-04-25T04:46:27;99545.84;;;10.51;89.25
38038;BME280;23843;51.320;12.340;2023-04-25T04:48:52;99544.09;;;10.90;81.98
38038;BME280;23843;51.320;12.340;2023-04-25T04:51:17;99544.09;;;10.37;83.59
38038;BME280;23843;51.320;12.340;2023-04-25T04:53:43;99543.50;;;10.19;85.11
38038;BME280;23843;51.320;12.340;2023-04-25T04:56:08;99557.31;;;10.10;86.61
38038;BME280;23843;51.320;12.340;2023-04-25T04:58:34;99545.97;;;10.08;86.10
38038;BME280;23843;51.320;12.340;2023-04-25T05:00:59;99550.25;;;10.23;86.27
38038;BME280;23843;51.320;12.340;2023-04-25T05:03:26;99552.19;;;10.48;86.80
38038;BME280;23843;51.320;12.340;2023-04-25T05:05:52;99555.72;;;10.87;86.14
38038;BME280;23843;51.320;12.340;2023-04-25T05:08:17;99554.59;;;10.91;81.11
38038;BME280;23843;51.320;12.340;2023-04-25T05:10:43;99555.97;;;10.97;80.23
38038;BME280;23843;51.320;12.340;2023-04-25T05:13:08;99556.50;;;11.02;79.69
38038;BME280;23843;51.320;12.340;2023-04-25T05:15:34;99558.09;;;11.18;80.40
38038;BME280;23843;51.320;12.340;2023-04-25T05:18:04;99561.78;;;11.53;79.85
38038;BME280;23843;51.320;12.340;2023-04-25T05:20:31;99561.72;;;11.92;82.02
38038;BME280;23843;51.320;12.340;2023-04-25T05:22:56;99562.97;;;11.99;73.28
38038;BME280;23843;51.320;12.340;2023-04-25T05:25:22;99556.81;;;11.98;72.59
38038;BME280;23843;51.320;12.340;2023-04-25T05:27:47;99559.53;;;12.10;73.45
38038;BME280;23843;51.320;12.340;2023-04-25T05:30:13;99563.22;;;12.20;69.95
38038;BME280;23843;51.320;12.340;2023-04-25T05:32:38;99551.63;;;12.45;68.98
38038;BME280;23843;51.320;12.340;2023-04-25T05:35:04;99546.72;;;12.63;73.28
38038;BME280;23843;51.320;12.340;2023-04-25T05:37:31;99558.44;;;13.07;72.98
38038;BME280;23843;51.320;12.340;2023-04-25T05:39:57;99558.75;;;13.38;71.14
38038;BME280;23843;51.320;12.340;2023-04-25T05:42:22;99551.44;;;13.96;72.83
38038;BME280;23843;51.320;12.340;2023-04-25T05:44:48;99546.94;;;14.72;75.11
38038;BME280;23843;51.320;12.340;2023-04-25T05:47:13;99552.75;;;15.60;60.53
38038;BME280;23843;51.320;12.340;2023-04-25T05:49:39;99552.41;;;16.24;56.34
38038;BME280;23843;51.320;12.340;2023-04-25T05:52:04;99553.84;;;18.80;52.49
38038;BME280;23843;51.320;12.340;2023-04-25T05:54:31;99557.34;;;20.52;45.20
38038;BME280;23843;51.320;12.340;2023-04-25T05:56:57;99552.53;;;21.69;42.77
38038;BME280;23843;51.320;12.340;2023-04-25T05:59:22;99554.16;;;22.87;38.02
38038;BME280;23843;51.320;12.340;2023-04-25T06:01:48;99559.19;;;22.98;31.90
38038;BME280;23843;51.320;12.340;2023-04-25T06:04:13;99570.63;;;22.54;37.69
38038;BME280;23843;51.320;12.340;2023-04-25T06:06:39;99562.56;;;24.04;32.02
38038;BME280;23843;51.320;12.340;2023-04-25T06:09:04;99566.72;;;25.01;37.22
38038;BME280;23843;51.320;12.340;2023-04-25T06:11:31;99576.84;;;25.77;33.22
38038;BME280;23843;51.320;12.340;2023-04-25T06:19:17;99572.72;;;25.46;26.46
38038;BME280;23843;51.320;12.340;2023-04-25T06:21:43;99573.09;;;26.26;32.38
38038;BME280;23843;51.320;12.340;2023-04-25T06:24:08;99580.16;;;26.82;28.70
38038;BME280;23843;51.320;12.340;2023-04-25T06:26:35;99574.44;;;27.77;31.21
38038;BME280;23843;51.320;12.340;2023-04-25T06:29:01;99565.44;;;27.69;24.66
38038;BME280;23843;51.320;12.340;2023-04-25T06:31:27;99583.28;;;26.59;26.79
38038;BME280;23843;51.320;12.340;2023-04-25T06:33:52;99581.47;;;24.70;26.76
38038;BME280;23843;51.320;12.340;2023-04-25T06:36:18;99585.78;;;23.24;33.18
38038;BME280;23843;51.320;12.340;2023-04-25T06:38:43;99588.97;;;22.36;37.43
38038;BME280;23843;51.320;12.340;2023-04-25T06:41:09;99587.28;;;21.48;35.29
38038;BME280;23843;51.320;12.340;2023-04-25T06:43:36;99594.06;;;20.78;35.75
38038;BME280;23843;51.320;12.340;2023-04-25T06:46:01;99596.91;;;20.77;38.00
38038;BME280;23843;51.320;12.340;2023-04-25T06:48:27;99589.34;;;21.13;37.07
38038;BME280;23843;51.320;12.340;2023-04-25T06:50:53;99595.72;;;21.20;38.62
38038;BME280;23843;51.320;12.340;2023-04-25T06:53:19;99594.72;;;20.64;39.32
38038;BME280;23843;51.320;12.340;2023-04-25T06:55:44;99596.56;;;20.04;35.51
38038;BME280;23843;51.320;12.340;2023-04-25T06:58:10;99595.22;;;19.40;37.71
38038;BME280;23843;51.320;12.340;2023-04-25T07:00:37;99596.25;;;18.95;41.76
38038;BME280;23843;51.320;12.340;2023-04-25T07:03:02;99605.63;;;18.45;40.41
38038;BME280;23843;51.320;12.340;2023-04-25T07:05:28;99601.13;;;18.00;40.96
38038;BME280;23843;51.320;12.340;2023-04-25T07:07:53;99613.56;;;17.44;40.55
38038;BME280;23843;51.320;12.340;2023-04-25T07:10:18;99617.13;;;17.25;41.85
38038;BME280;23843;51.320;12.340;2023-04-25T07:12:44;99615.06;;;17.09;41.37
38038;BME280;23843;51.320;12.340;2023-04-25T07:15:10;99616.72;;;16.52;42.01
38038;BME280;23843;51.320;12.340;2023-04-25T07:17:37;99618.16;;;16.06;43.18
38038;BME280;23843;51.320;12.340;2023-04-25T07:20:02;99620.28;;;15.72;44.34
38038;BME280;23843;51.320;12.340;2023-04-25T07:22:28;99616.72;;;15.40;44.60
38038;BME280;23843;51.320;12.340;2023-04-25T07:24:54;99612.66;;;15.15;45.69
38038;BME280;23843;51.320;12.340;2023-04-25T07:27:19;99622.81;;;15.01;46.36
38038;BME280;23843;51.320;12.340;2023-04-25T07:29:44;99626.25;;;14.91;46.43
38038;BME280;23843;51.320;12.340;2023-04-25T07:32:10;99625.44;;;14.80;46.94
38038;BME280;23843;51.320;12.340;2023-04-25T07:34:37;99632.44;;;14.60;47.04
38038;BME280;23843;51.320;12.340;2023-04-25T07:37:02;99635.47;;;14.44;47.47
38038;BME280;23843;51.320;12.340;2023-04-25T07:39:28;99632.00;;;14.21;48.77
38038;BME280;23843;51.320;12.340;2023-04-25T07:41:53;99639.78;;;14.01;49.36
38038;BME280;23843;51.320;12.340;2023-04-25T07:44:19;99643.69;;;13.86;49.22
38038;BME280;23843;51.320;12.340;2023-04-25T07:46:44;99636.63;;;13.85;50.11
38038;BME280;23843;51.320;12.340;2023-04-25T07:49:09;99639.91;;;13.77;49.72
38038;BME280;23843;51.320;12.340;2023-04-25T07:51:37;99641.25;;;13.72;49.33
38038;BME280;23843;51.320;12.340;2023-04-25T07:54:02;99640.53;;;13.58;49.75
38038;BME280;23843;51.320;12.340;2023-04-25T07:56:28;99646.78;;;13.46;51.84
38038;BME280;23843;51.320;12.340;2023-04-25T07:58:53;99644.78;;;13.25;52.57
38038;BME280;23843;51.320;12.340;2023-04-25T08:01:18;99651.53;;;13.18;51.79
38038;BME280;23843;51.320;12.340;2023-04-25T08:03:44;99656.84;;;13.18;52.05
38038;BME280;23843;51.320;12.340;2023-04-25T08:06:09;99661.19;;;13.08;53.75
38038;BME280;23843;51.320;12.340;2023-04-25T08:08:36;99666.00;;;13.03;54.17
38038;BME280;23843;51.320;12.340;2023-04-25T08:11:02;99668.75;;;12.90;53.81
38038;BME280;23843;51.320;12.340;2023-04-25T08:13:27;99671.66;;;12.74;53.96
38038;BME280;23843;51.320;12.340;2023-04-25T08:15:53;99675.91;;;12.77;53.26
38038;BME280;23843;51.320;12.340;2023-04-25T08:18:18;99678.22;;;12.81;52.49
38038;BME280;23843;51.320;12.340;2023-04-25T08:20:43;99686.13;;;12.70;51.65
38038;BME280;23843;51.320;12.340;2023-04-25T08:23:09;99681.78;;;12.69;51.24
38038;BME280;23843;51.320;12.340;2023-04-25T08:25:36;99687.63;;;12.74;51.53
38038;BME280;23843;51.320;12.340;2023-04-25T08:28:01;99690.19;;;12.63;51.42
38038;BME280;23843;51.320;12.340;2023-04-25T08:30:27;99689.44;;;12.74;51.64
38038;BME280;23843;51.320;12.340;2023-04-25T08:32:52;99697.09;;;12.90;51.66
38038;BME280;23843;51.320;12.340;2023-04-25T08:35:18;99701.72;;;12.88;51.27
38038;BME280;23843;51.320;12.340;2023-04-25T08:37:43;99697.50;;;12.96;50.82
38038;BME280;23843;51.320;12.340;2023-04-25T08:40:11;99703.25;;;13.14;50.13
38038;BME280;23843;51.320;12.340;2023-04-25T08:42:41;99704.81;;;13.30;49.25
38038;BME280;23843;51.320;12.340;2023-04-25T08:45:07;99703.13;;;13.40;48.45
38038;BME280;23843;51.320;12.340;2023-04-25T08:47:33;99702.53;;;13.47;48.48
38038;BME280;23843;51.320;12.340;2023-04-25T08:49:59;99712.09;;;13.50;48.09
38038;BME280;23843;51.320;12.340;2023-04-25T08:52:28;99710.44;;;13.60;47.85
38038;BME280;23843;51.320;12.340;2023-04-25T08:54:56;99712.13;;;13.61;47.46
38038;BME280;23843;51.320;12.340;2023-04-25T08:57:22;99717.66;;;13.47;47.33
38038;BME280;23843;51.320;12.340;2023-04-25T08:59:49;99727.31;;;13.37;47.56
38038;BME280;23843;51.320;12.340;2023-04-25T09:02:17;99735.41;;;13.35;48.11
38038;BME280;23843;51.320;12.340;2023-04-25T09:04:43;99737.81;;;13.14;48.20
38038;BME280;23843;51.320;12.340;2023-04-25T09:07:09;99737.72;;;13.16;48.29
38038;BME280;23843;51.320;12.340;2023-04-25T09:09:34;99744.72;;;13.41;48.97
38038;BME280;23843;51.320;12.340;2023-04-25T09:12:00;99740.78;;;13.58;48.71
38038;BME280;23843;51.320;12.340;2023-04-25T09:14:25;99739.91;;;13.93;47.80
38038;BME280;23843;51.320;12.340;2023-04-25T09:17:00;99744.25;;;14.27;47.35
38038;BME280;23843;51.320;12.340;2023-04-25T09:19:27;99747.28;;;14.45;47.38
38038;BME280;23843;51.320;12.340;2023-04-25T09:21:54;99747.31;;;14.57;46.52
38038;BME280;23843;51.320;12.340;2023-04-25T09:24:30;99757.94;;;14.45;46.32
38038;BME280;23843;51.320;12.340;2023-04-25T09:26:55;99761.31;;;14.47;46.04
38038;BME280;23843;51.320;12.340;2023-04-25T09:29:28;99764.25;;;14.67;45.64
38038;BME280;23843;51.320;12.340;2023-04-25T09:32:12;99764.22;;;14.78;44.93
38038;BME280;23843;51.320;12.340;2023-04-25T09:34:39;99774.53;;;14.71;44.47
38038;BME280;23843;51.320;12.340;2023-04-25T09:37:04;99778.31;;;14.58;45.13
38038;BME280;23843;51.320;12.340;2023-04-25T09:39:32;99775.88;;;14.32;44.86
38038;BME280;23843;51.320;12.340;2023-04-25T09:41:59;99781.91;;;14.11;45.38
38038;BME280;23843;51.320;12.340;2023-04-25T09:44:24;99786.75;;;13.95;45.93
38038;BME280;23843;51.320;12.340;2023-04-25T09:46:50;99787.69;;;13.83;46.45
38038;BME280;23843;51.320;12.340;2023-04-25T09:49:19;99793.00;;;13.83;46.56
38038;BME280;23843;51.320;12.340;2023-04-25T09:51:54;99782.13;;;13.86;46.81
38038;BME280;23843;51.320;12.340;2023-04-25T09:54:19;99779.06;;;13.79;47.36
38038;BME280;23843;51.320;12.340;2023-04-25T09:56:47;99789.63;;;13.81;47.11
38038;BME280;23843;51.320;12.340;2023-04-25T09:59:14;99784.19;;;13.94;47.35
38038;BME280;23843;51.320;12.340;2023-04-25T10:01:40;99787.09;;;14.02;46.81
38038;BME280;23843;51.320;12.340;2023-04-25T10:04:10;99792.56;;;14.00;46.77
38038;BME280;23843;51.320;12.340;2023-04-25T10:06:37;99793.97;;;13.82;47.19
38038;BME280;23843;51.320;12.340;2023-04-25T10:09:03;99791.16;;;13.72;47.29
38038;BME280;23843;51.320;12.340;2023-04-25T10:11:30;99791.69;;;13.53;47.33
38038;BME280;23843;51.320;12.340;2023-04-25T10:13:57;99795.63;;;13.36;47.58
38038;BME280;23843;51.320;12.340;2023-04-25T10:16:23;99801.50;;;13.28;48.17
38038;BME280;23843;51.320;12.340;2023-04-25T10:18:49;99805.22;;;13.26;48.49
38038;BME280;23843;51.320;12.340;2023-04-25T10:21:16;99800.13;;;13.23;48.21
38038;BME280;23843;51.320;12.340;2023-04-25T10:23:43;99799.28;;;13.22;48.57
38038;BME280;23843;51.320;12.340;2023-04-25T10:26:09;99803.72;;;13.35;48.25
38038;BME280;23843;51.320;12.340;2023-04-25T10:28:55;99797.88;;;13.54;48.08
38038;BME280;23843;51.320;12.340;2023-04-25T10:31:20;99798.53;;;13.68;47.87
38038;BME280;23843;51.320;12.340;2023-04-25T10:33:46;99787.91;;;13.80;48.03
38038;BME280;23843;51.320;12.340;2023-04-25T10:36:13;99789.88;;;13.89;47.57
38038;BME280;23843;51.320;12.340;2023-04-25T10:38:39;99789.47;;;13.71;47.75
38038;BME280;23843;51.320;12.340;2023-04-25T10:41:07;99796.56;;;13.59;48.38
38038;BME280;23843;51.320;12.340;2023-04-25T10:43:35;99798.97;;;13.51;48.56
38038;BME280;23843;51.320;12.340;2023-04-25T10:46:02;99797.00;;;13.42;48.29
38038;BME280;23843;51.320;12.340;2023-04-25T10:48:28;99794.91;;;13.21;50.24
38038;BME280;23843;51.320;12.340;2023-04-25T10:51:07;99796.16;;;13.04;50.11
38038;BME280;23843;51.320;12.340;2023-04-25T10:53:33;99801.84;;;13.00;50.79
38038;BME280;23843;51.320;12.340;2023-04-25T10:55:58;99795.69;;;12.87;51.94
38038;BME280;23843;51.320;12.340;2023-04-25T10:58:25;99806.38;;;12.74;51.81
38038;BME280;23843;51.320;12.340;2023-04-25T11:00:51;99801.91;;;12.74;52.67
38038;BME280;23843;51.320;12.340;2023-04-25T11:03:16;99807.72;;;12.79;53.54
38038;BME280;23843;51.320;12.340;2023-04-25T11:05:44;99806.28;;;12.75;53.43
38038;BME280;23843;51.320;12.340;2023-04-25T11:08:11;99811.59;;;12.62;53.94
38038;BME280;23843;51.320;12.340;2023-04-25T11:10:36;99805.97;;;12.67;54.13
38038;BME280;23843;51.320;12.340;2023-04-25T11:13:02;99811.38;;;12.78;53.75
38038;BME280;23843;51.320;12.340;2023-04-25T11:15:29;99815.38;;;12.84;52.99
38038;BME280;23843;51.320;12.340;2023-04-25T11:17:55;99814.25;;;12.75;52.78
38038;BME280;23843;51.320;12.340;2023-04-25T11:20:21;99817.09;;;12.72;52.87
38038;BME280;23843;51.320;12.340;2023-04-25T11:22:47;99818.31;;;12.68;54.25
38038;BME280;23843;51.320;12.340;2023-04-25T11:25:14;99820.72;;;12.71;52.84
38038;BME280;23843;51.320;12.340;2023-04-25T11:27:49;99821.38;;;12.62;52.67
38038;BME280;23843;51.320;12.340;2023-04-25T11:30:15;99825.44;;;12.42;52.69
38038;BME280;23843;51.320;12.340;2023-04-25T11:32:42;99835.66;;;12.35;53.00
38038;BME280;23843;51.320;12.340;2023-04-25T11:35:08;99837.56;;;12.33;52.47
38038;BME280;23843;51.320;12.340;2023-04-25T11:37:33;99840.66;;;12.27;51.74
38038;BME280;23843;51.320;12.340;2023-04-25T11:39:59;99844.25;;;12.26;51.42
38038;BME280;23843;51.320;12.340;2023-04-25T11:42:25;99840.13;;;12.22;51.54
38038;BME280;23843;51.320;12.340;2023-04-25T11:44:50;99842.34;;;12.28;50.72
38038;BME280;23843;51.320;12.340;2023-04-25T11:47:16;99835.44;;;12.38;50.09
38038;BME280;23843;51.320;12.340;2023-04-25T11:49:43;99840.56;;;12.41;49.69
38038;BME280;23843;51.320;12.340;2023-04-25T11:52:08;99842.53;;;12.51;49.21
38038;BME280;23843;51.320;12.340;2023-04-25T11:54:35;99844.78;;;12.44;49.08
38038;BME280;23843;51.320;12.340;2023-04-25T11:57:01;99850.50;;;12.51;48.57
38038;BME280;23843;51.320;12.340;2023-04-25T11:59:26;99854.75;;;12.53;48.52
38038;BME280;23843;51.320;12.340;2023-04-25T12:01:52;99852.44;;;12.49;47.96
38038;BME280;23843;51.320;12.340;2023-04-25T12:04:19;99857.44;;;12.40;48.82
38038;BME280;23843;51.320;12.340;2023-04-25T12:06:48;99847.31;;;12.46;48.63
38038;BME280;23843;51.320;12.340;2023-04-25T12:09:16;99852.00;;;12.42;48.46
38038;BME280;23843;51.320;12.340;2023-04-25T12:11:42;99860.94;;;12.41;49.08
38038;BME280;23843;51.320;12.340;2023-04-25T12:14:08;99858.16;;;12.55;48.81
38038;BME280;23843;51.320;12.340;2023-04-25T12:16:40;99848.59;;;12.66;48.31
38038;BME280;23843;51.320;12.340;2023-04-25T12:19:06;99850.25;;;12.79;48.13
38038;BME280;23843;51.320;12.340;2023-04-25T12:21:32;99854.56;;;13.06;47.66
38038;BME280;23843;51.320;12.340;2023-04-25T12:24:09;99856.28;;;13.31;47.42
38038;BME280;23843;51.320;12.340;2023-04-25T12:26:48;99862.28;;;13.46;46.63
38038;BME280;23843;51.320;12.340;2023-04-25T12:29:19;99857.72;;;13.48;46.14
38038;BME280;23843;51.320;12.340;2023-04-25T12:31:45;99851.63;;;13.35;45.63
38038;BME280;23843;51.320;12.340;2023-04-25T12:34:10;99855.88;;;13.24;45.78
38038;BME280;23843;51.320;12.340;2023-04-25T12:36:35;99864.44;;;13.04;45.65
38038;BME280;23843;51.320;12.340;2023-04-25T12:39:02;99856.84;;;12.87;46.67
38038;BME280;23843;51.320;12.340;2023-04-25T12:41:28;99856.22;;;12.83;47.48
38038;BME280;23843;51.320;12.340;2023-04-25T12:43:53;99847.72;;;12.65;47.18
38038;BME280;23843;51.320;12.340;2023-04-25T12:46:19;99856.56;;;12.53;48.27
38038;BME280;23843;51.320;12.340;2023-04-25T12:48:44;99855.94;;;12.49;48.46
38038;BME280;23843;51.320;12.340;2023-04-25T12:51:10;99862.75;;;12.28;48.29